sensor_id;sensor_type;location;lat;lon;timestamp;temperature;humidity
29255;DHT22;16277;48.890;2.306;2022-12-13T00:06:10;6.50;99.80
29255;DHT22;16277;48.890;2.306;2022-12-13T00:21:16;6.50;99.50
29255;DHT22;16277;48.890;2.306;2022-12-13T00:36:21;6.40;99.40
29255;DHT22;16277;48.890;2.306;2022-12-13T00:51:28;6.30;98.60
29255;DHT22;16277;48.890;2.306;2022-12-13T01:06:34;6.50;98.60
29255;DHT22;16277;48.890;2.306;2022-12-13T01:21:40;6.30;98.30
29255;DHT22;16277;48.890;2.306;2022-12-13T01:36:45;6.30;98.30
29255;DHT22;16277;48.890;2.306;2022-12-13T01:51:53;6.20;98.10
29255;DHT22;16277;48.890;2.306;2022-12-13T02:06:59;6.30;97.60
29255;DHT22;16277;48.890;2.306;2022-12-13T02:22:13;6.40;97.40
29255;DHT22;16277;48.890;2.306;2022-12-13T02:37:25;6.30;97.20
29255;DHT22;16277;48.890;2.306;2022-12-13T02:52:32;6.20;97.10
29255;DHT22;16277;48.890;2.306;2022-12-13T03:07:43;6.20;96.70
29255;DHT22;16277;48.890;2.306;2022-12-13T03:22:50;6.30;96.40
29255;DHT22;16277;48.890;2.306;2022-12-13T03:37:54;6.10;96.50
29255;DHT22;16277;48.890;2.306;2022-12-13T03:53:00;6.10;96.60
29255;DHT22;16277;48.890;2.306;2022-12-13T04:08:06;6.00;96.70
29255;DHT22;16277;48.890;2.306;2022-12-13T04:23:24;5.90;96.50
29255;DHT22;16277;48.890;2.306;2022-12-13T04:38:29;6.00;96.30
29255;DHT22;16277;48.890;2.306;2022-12-13T04:53:33;6.10;96.20
29255;DHT22;16277;48.890;2.306;2022-12-13T05:08:38;5.80;96.40
29255;DHT22;16277;48.890;2.306;2022-12-13T05:23:42;6.20;96.00
29255;DHT22;16277;48.890;2.306;2022-12-13T05:38:47;5.90;95.90
29255;DHT22;16277;48.890;2.306;2022-12-13T05:53:51;5.90;96.00
29255;DHT22;16277;48.890;2.306;2022-12-13T06:08:57;6.00;96.10
29255;DHT22;16277;48.890;2.306;2022-12-13T06:24:02;5.90;96.20
29255;DHT22;16277;48.890;2.306;2022-12-13T06:39:07;6.20;95.90
29255;DHT22;16277;48.890;2.306;2022-12-13T06:54:12;5.90;96.30
29255;DHT22;16277;48.890;2.306;2022-12-13T07:09:16;6.00;96.30
29255;DHT22;16277;48.890;2.306;2022-12-13T07:24:23;5.90;96.60
29255;DHT22;16277;48.890;2.306;2022-12-13T07:39:27;6.10;97.20
29255;DHT22;16277;48.890;2.306;2022-12-13T07:54:34;6.20;96.20
29255;DHT22;16277;48.890;2.306;2022-12-13T08:09:38;6.10;96.30
29255;DHT22;16277;48.890;2.306;2022-12-13T08:24:43;6.20;96.00
29255;DHT22;16277;48.890;2.306;2022-12-13T08:39:47;6.00;95.50
29255;DHT22;16277;48.890;2.306;2022-12-13T08:54:52;6.30;95.40
29255;DHT22;16277;48.890;2.306;2022-12-13T09:09:57;6.50;95.40
29255;DHT22;16277;48.890;2.306;2022-12-13T09:25:21;6.40;95.40
29255;DHT22;16277;48.890;2.306;2022-12-13T09:40:27;6.40;95.20
29255;DHT22;16277;48.890;2.306;2022-12-13T09:55:43;6.70;94.70
29255;DHT22;16277;48.890;2.306;2022-12-13T10:10:48;6.50;94.70
29255;DHT22;16277;48.890;2.306;2022-12-13T10:25:53;6.80;94.20
29255;DHT22;16277;48.890;2.306;2022-12-13T10:41:25;6.60;94.10
29255;DHT22;16277;48.890;2.306;2022-12-13T10:56:35;6.90;94.10
29255;DHT22;16277;48.890;2.306;2022-12-13T11:11:42;6.70;93.40
29255;DHT22;16277;48.890;2.306;2022-12-13T11:26:52;7.00;93.10
29255;DHT22;16277;48.890;2.306;2022-12-13T11:42:03;7.10;92.90
29255;DHT22;16277;48.890;2.306;2022-12-13T11:57:18;7.40;92.50
29255;DHT22;16277;48.890;2.306;2022-12-13T12:12:31;7.30;91.90
29255;DHT22;16277;48.890;2.306;2022-12-13T12:27:41;7.50;91.70
29255;DHT22;16277;48.890;2.306;2022-12-13T12:42:58;7.50;91.70
29255;DHT22;16277;48.890;2.306;2022-12-13T12:58:25;7.80;91.80
29255;DHT22;16277;48.890;2.306;2022-12-13T13:13:43;7.60;92.00
29255;DHT22;16277;48.890;2.306;2022-12-13T13:28:49;8.30;91.30
29255;DHT22;16277;48.890;2.306;2022-12-13T13:43:54;8.40;90.50
29255;DHT22;16277;48.890;2.306;2022-12-13T13:59:30;8.60;89.00
29255;DHT22;16277;48.890;2.306;2022-12-13T14:15:15;8.50;88.50
29255;DHT22;16277;48.890;2.306;2022-12-13T14:30:25;8.60;87.60
29255;DHT22;16277;48.890;2.306;2022-12-13T14:45:33;8.70;87.90
29255;DHT22;16277;48.890;2.306;2022-12-13T15:00:39;8.90;87.50
29255;DHT22;16277;48.890;2.306;2022-12-13T15:15:51;8.90;88.00
29255;DHT22;16277;48.890;2.306;2022-12-13T15:31:01;8.90;89.40
29255;DHT22;16277;48.890;2.306;2022-12-13T15:46:07;8.90;88.30
29255;DHT22;16277;48.890;2.306;2022-12-13T16:01:25;8.70;88.30
29255;DHT22;16277;48.890;2.306;2022-12-13T16:16:30;8.60;88.10
29255;DHT22;16277;48.890;2.306;2022-12-13T16:31:35;8.70;88.90
29255;DHT22;16277;48.890;2.306;2022-12-13T16:46:40;8.60;88.70
29255;DHT22;16277;48.890;2.306;2022-12-13T17:02:04;8.50;87.90
29255;DHT22;16277;48.890;2.306;2022-12-13T17:17:09;8.40;89.10
29255;DHT22;16277;48.890;2.306;2022-12-13T17:32:19;8.30;89.70
29255;DHT22;16277;48.890;2.306;2022-12-13T17:47:24;8.50;88.30
29255;DHT22;16277;48.890;2.306;2022-12-13T18:02:28;8.50;89.70
29255;DHT22;16277;48.890;2.306;2022-12-13T18:17:33;8.40;90.10
29255;DHT22;16277;48.890;2.306;2022-12-13T18:32:58;8.00;90.40
29255;DHT22;16277;48.890;2.306;2022-12-13T18:48:03;8.20;90.50
29255;DHT22;16277;48.890;2.306;2022-12-13T19:03:08;8.30;90.50
29255;DHT22;16277;48.890;2.306;2022-12-13T19:18:13;8.20;90.90
29255;DHT22;16277;48.890;2.306;2022-12-13T19:33:17;8.20;91.30
29255;DHT22;16277;48.890;2.306;2022-12-13T19:48:22;8.20;91.00
29255;DHT22;16277;48.890;2.306;2022-12-13T20:03:26;8.20;91.30
29255;DHT22;16277;48.890;2.306;2022-12-13T20:18:32;8.30;91.40
29255;DHT22;16277;48.890;2.306;2022-12-13T20:33:37;8.30;91.40
29255;DHT22;16277;48.890;2.306;2022-12-13T20:48:43;8.10;91.60
29255;DHT22;16277;48.890;2.306;2022-12-13T21:03:48;8.20;91.60
